Time;durP1;ratioP1;P1;durP2;ratioP2;P2;SDS_P1;SDS_P2;PMS_P1;PMS_P2;Temp;Humidity;BMP_temperature;BMP_pressure;BME280_temperature;BME280_humidity;BME280_pressure;Samples;Min_cycle;Max_cycle;Signal;HPM_P1;HPM_P2
2021/08/04 00:03:43;;;;;;;;;;;;;;;17.23;84.88;99881.78;10363056;28;19952;-58
2021/08/04 00:08:44;;;;;;;;;;;;;;;17.32;84.40;99891.47;10355688;28;19975;-53
2021/08/04 00:13:46;;;;;;;;;;;;;;;17.33;83.26;99889.63;10366196;28;20015;-56
2021/08/04 00:18:47;;;;;;;;;;;;;;;17.19;84.99;99892.06;10373143;28;19975;-55
2021/08/04 00:23:49;;;;;;;;;;;;;;;17.25;84.26;99896.72;10372080;28;19937;-57
2021/08/04 00:28:50;;;;;;;;;;;;;;;17.13;84.50;99898.13;10372398;28;20339;-55
2021/08/04 00:33:51;;;;;;;;;;;;;;;16.92;85.67;99886.13;10372534;28;19925;-53
2021/08/04 00:38:53;;;;;;;;;;;;;;;16.77;86.62;99887.81;10375397;28;20023;-55
2021/08/04 00:43:54;;;;;;;;;;;;;;;16.86;85.99;99886.78;10376072;28;20379;-56
2021/08/04 00:48:55;;;;;;;;;;;;;;;16.47;85.76;99817.72;10369226;28;19955;-53
2021/08/04 00:53:57;;;;;;;;;;;;;;;16.98;85.19;99875.66;10362928;28;19933;-58
2021/08/04 00:58:58;;;;;;;;;;;;;;;17.03;84.55;99876.81;10366233;28;19972;-56
2021/08/04 01:04:08;;;;;;;;;;;;;;;16.96;84.75;99871.31;10367917;28;20386;-58
2021/08/04 01:09:10;;;;;;;;;;;;;;;17.06;84.73;99881.03;10365468;28;19933;-53
2021/08/04 01:14:12;;;;;;;;;;;;;;;17.07;84.48;99878.16;10365435;28;19975;-53
2021/08/04 01:19:20;;;;;;;;;;;;;;;16.98;84.28;99870.28;10362665;28;19957;-55
2021/08/04 01:24:39;;;;;;;;;;;;;;;16.91;84.95;99872.84;10365989;28;20394;-58
2021/08/04 01:29:41;;;;;;;;;;;;;;;16.91;84.90;99873.69;10371276;28;20498;-58
2021/08/04 01:34:43;;;;;;;;;;;;;;;16.90;84.99;99872.03;10365094;28;20012;-55
2021/08/04 01:39:45;;;;;;;;;;;;;;;16.89;85.21;99873.03;10370093;28;19956;-60
2021/08/04 01:44:47;;;;;;;;;;;;;;;16.86;85.45;99881.41;10363921;28;20011;-55
2021/08/04 01:49:49;;;;;;;;;;;;;;;16.76;85.69;99872.69;10366951;28;19960;-57
2021/08/04 01:54:51;;;;;;;;;;;;;;;16.91;85.04;99862.91;10365640;28;19957;-56
2021/08/04 01:59:52;;;;;;;;;;;;;;;16.93;84.41;99866.28;10361792;28;19952;-53
2021/08/04 02:04:54;;;;;;;;;;;;;;;16.92;84.12;99864.59;10361977;28;20572;-55
2021/08/04 02:09:57;;;;;;;;;;;;;;;16.89;83.93;99856.91;10371379;28;19925;-56
2021/08/04 02:15:05;;;;;;;;;;;;;;;16.96;84.52;99857.88;10363271;28;20101;-52
2021/08/04 02:20:07;;;;;;;;;;;;;;;17.08;83.34;99863.72;10369982;28;20425;-56
2021/08/04 02:25:14;;;;;;;;;;;;;;;17.16;82.68;99865.53;10361787;28;19940;-53
2021/08/04 02:30:17;;;;;;;;;;;;;;;17.21;82.96;99863.13;10368412;28;19951;-53
2021/08/04 02:35:18;;;;;;;;;;;;;;;17.25;82.50;99859.06;10359979;28;19953;-55
2021/08/04 02:40:20;;;;;;;;;;;;;;;17.15;82.24;99863.84;10367468;28;20015;-53
2021/08/04 02:45:21;;;;;;;;;;;;;;;17.06;83.53;99859.50;10366428;28;19983;-57
2021/08/04 02:50:23;;;;;;;;;;;;;;;17.03;83.54;99860.69;10362273;28;19996;-53
2021/08/04 02:55:25;;;;;;;;;;;;;;;17.06;83.18;99875.66;10347183;28;20399;-53
2021/08/04 03:00:26;;;;;;;;;;;;;;;16.99;83.43;99874.66;10363297;28;20000;-54
2021/08/04 03:05:27;;;;;;;;;;;;;;;16.85;84.42;99868.13;10359468;28;20026;-56
2021/08/04 03:10:29;;;;;;;;;;;;;;;16.80;84.56;99874.03;10364857;28;19929;-56
2021/08/04 03:15:32;;;;;;;;;;;;;;;16.86;84.19;99867.97;10361251;28;19979;-53
2021/08/04 03:20:34;;;;;;;;;;;;;;;16.80;83.94;99876.72;10352772;28;19961;-57
2021/08/04 03:25:35;;;;;;;;;;;;;;;16.77;84.19;99877.06;10354785;28;19973;-54
2021/08/04 03:30:36;;;;;;;;;;;;;;;16.86;84.15;99876.03;10354140;28;19972;-55
2021/08/04 03:35:38;;;;;;;;;;;;;;;16.79;84.34;99881.25;10351919;28;19926;-54
2021/08/04 03:40:39;;;;;;;;;;;;;;;16.67;85.29;99879.94;10360564;28;19986;-53
2021/08/04 03:45:40;;;;;;;;;;;;;;;16.77;84.48;99885.13;10358961;28;19975;-57
2021/08/04 03:50:42;;;;;;;;;;;;;;;16.89;84.01;99875.72;10361916;28;19929;-55
2021/08/04 03:55:43;;;;;;;;;;;;;;;16.79;84.54;99880.41;10358307;28;19933;-58
2021/08/04 04:00:45;;;;;;;;;;;;;;;16.81;84.40;99883.75;10356390;28;20018;-57
2021/08/04 04:05:47;;;;;;;;;;;;;;;16.74;85.23;99894.38;10362924;28;19929;-56
2021/08/04 04:10:48;;;;;;;;;;;;;;;16.75;84.88;99884.44;10353359;28;19925;-55
2021/08/04 04:15:49;;;;;;;;;;;;;;;16.71;85.41;99892.03;10363723;28;19999;-57
2021/08/04 04:20:51;;;;;;;;;;;;;;;16.77;84.71;99894.03;10370893;28;19937;-54
2021/08/04 04:25:52;;;;;;;;;;;;;;;16.84;84.54;99898.72;10361963;28;19925;-54
2021/08/04 04:30:53;;;;;;;;;;;;;;;16.83;84.13;99903.25;10366435;28;19956;-55
2021/08/04 04:35:55;;;;;;;;;;;;;;;16.82;84.49;99901.56;10365961;28;20030;-56
2021/08/04 04:40:56;;;;;;;;;;;;;;;16.72;84.75;99895.56;10363107;28;20017;-52
2021/08/04 04:45:58;;;;;;;;;;;;;;;16.88;84.43;99900.09;10364383;28;19933;-56
2021/08/04 04:50:59;;;;;;;;;;;;;;;16.87;84.37;99907.28;10361813;28;19931;-51
2021/08/04 04:56:00;;;;;;;;;;;;;;;16.96;83.60;99900.03;10371495;28;19937;-55
2021/08/04 05:01:02;;;;;;;;;;;;;;;17.11;83.33;99902.84;10364481;28;20007;-60
2021/08/04 05:06:03;;;;;;;;;;;;;;;17.06;83.13;99910.59;10346715;28;20075;-54
2021/08/04 05:11:05;;;;;;;;;;;;;;;16.93;83.63;99903.94;10346665;28;20128;-54
2021/08/04 05:16:06;;;;;;;;;;;;;;;16.99;83.29;99904.25;10350527;28;19933;-54
2021/08/04 05:21:07;;;;;;;;;;;;;;;17.01;83.29;99910.25;10347543;28;20395;-55
2021/08/04 05:26:09;;;;;;;;;;;;;;;17.09;83.56;99919.16;10345255;28;19987;-57
2021/08/04 05:31:10;;;;;;;;;;;;;;;17.21;82.39;99910.72;10344517;28;20418;-53
2021/08/04 05:36:12;;;;;;;;;;;;;;;17.30;82.00;99909.66;10344353;28;19933;-52
2021/08/04 05:41:13;;;;;;;;;;;;;;;17.41;81.68;99916.47;10349227;28;19969;-53
2021/08/04 05:46:14;;;;;;;;;;;;;;;17.45;81.44;99917.81;10334460;28;20504;-56
2021/08/04 05:51:16;;;;;;;;;;;;;;;17.45;81.00;99915.13;10342200;28;19942;-58
2021/08/04 05:56:17;;;;;;;;;;;;;;;17.50;81.43;99915.41;10340525;28;19968;-56
2021/08/04 06:01:18;;;;;;;;;;;;;;;17.61;81.18;99911.47;10341942;28;20331;-52
2021/08/04 06:06:20;;;;;;;;;;;;;;;17.73;80.86;99906.53;10347564;28;19925;-57
2021/08/04 06:11:22;;;;;;;;;;;;;;;17.65;80.42;99902.91;10347509;28;19981;-55
2021/08/04 06:16:23;;;;;;;;;;;;;;;17.83;80.18;99912.53;10344921;28;19975;-55
2021/08/04 06:21:28;;;;;;;;;;;;;;;17.95;79.60;99918.34;10327202;28;19940;-52
2021/08/04 06:26:29;;;;;;;;;;;;;;;18.05;78.80;99924.34;10347972;28;20013;-59
2021/08/04 06:31:31;;;;;;;;;;;;;;;17.99;78.37;99925.91;10334399;28;20028;-54
2021/08/04 06:36:32;;;;;;;;;;;;;;;18.02;77.86;99930.91;10345333;28;19925;-57
2021/08/04 06:41:33;;;;;;;;;;;;;;;18.13;78.01;99942.28;10344786;28;19929;-56
2021/08/04 06:46:38;;;;;;;;;;;;;;;18.25;76.82;99942.72;10333012;28;19932;-56
2021/08/04 06:51:40;;;;;;;;;;;;;;;18.45;76.48;99945.72;10329315;28;19949;-59
2021/08/04 06:56:41;;;;;;;;;;;;;;;18.51;75.80;99953.06;10342444;28;19984;-56
2021/08/04 07:01:45;;;;;;;;;;;;;;;18.49;75.01;99952.44;10350340;28;20023;-58
2021/08/04 07:06:53;;;;;;;;;;;;;;;18.62;74.92;99943.72;10341801;28;20007;-60
2021/08/04 07:11:55;;;;;;;;;;;;;;;18.85;73.63;99947.19;10326095;28;20010;-54
2021/08/04 07:16:56;;;;;;;;;;;;;;;19.01;71.63;99953.47;10341899;28;19964;-52
2021/08/04 07:21:58;;;;;;;;;;;;;;;19.07;71.33;99956.25;10343321;28;19933;-55
2021/08/04 07:26:59;;;;;;;;;;;;;;;19.14;70.14;99958.19;10343342;28;19925;-56
2021/08/04 07:32:00;;;;;;;;;;;;;;;19.15;71.11;99955.31;10342949;28;19925;-53
2021/08/04 07:37:03;;;;;;;;;;;;;;;19.46;70.32;99965.06;10346085;28;19959;-57
2021/08/04 07:42:04;;;;;;;;;;;;;;;19.58;69.35;99968.09;10346827;28;19972;-53
2021/08/04 07:47:05;;;;;;;;;;;;;;;19.57;69.00;99966.41;10339716;28;20040;-54
2021/08/04 07:52:07;;;;;;;;;;;;;;;20.05;68.30;99958.66;10350167;28;20572;-53
2021/08/04 07:57:09;;;;;;;;;;;;;;;20.37;66.29;99956.47;10344577;28;20114;-58
2021/08/04 08:02:10;;;;;;;;;;;;;;;20.27;65.34;99947.88;10343555;28;19968;-58
2021/08/04 08:07:11;;;;;;;;;;;;;;;20.47;64.34;99946.13;10338223;28;20418;-56
2021/08/04 08:12:13;;;;;;;;;;;;;;;20.69;64.74;99939.88;10342949;28;20040;-57
2021/08/04 08:17:14;;;;;;;;;;;;;;;20.71;63.82;99944.06;10336779;28;20022;-55
2021/08/04 08:22:15;;;;;;;;;;;;;;;20.52;63.75;99942.03;10345486;28;20027;-57
2021/08/04 08:27:17;;;;;;;;;;;;;;;21.05;62.19;99942.41;10342193;28;20044;-52
2021/08/04 08:32:18;;;;;;;;;;;;;;;21.27;61.75;99945.00;10348441;28;20386;-57
2021/08/04 08:37:19;;;;;;;;;;;;;;;21.32;61.52;99947.97;10349256;28;20020;-54
2021/08/04 08:42:21;;;;;;;;;;;;;;;21.89;58.57;99933.16;10351056;28;20048;-55
2021/08/04 08:47:22;;;;;;;;;;;;;;;22.08;56.46;99925.25;10350479;28;20026;-58
2021/08/04 08:52:24;;;;;;;;;;;;;;;21.81;58.18;99921.69;10348329;28;20531;-55
2021/08/04 08:57:25;;;;;;;;;;;;;;;21.86;58.96;99906.50;10332314;28;19983;-52
2021/08/04 09:02:27;;;;;;;;;;;;;;;21.93;59.30;99913.78;10353418;28;20091;-55
2021/08/04 09:07:32;;;;;;;;;;;;;;;22.07;58.45;99910.06;10349761;28;19933;-53
2021/08/04 09:12:45;;;;;;;;;;;;;;;21.39;59.35;99912.78;10347527;28;20469;-55
2021/08/04 09:17:56;;;;;;;;;;;;;;;21.41;58.45;99899.88;10350775;28;20027;-55
2021/08/04 09:23:01;;;;;;;;;;;;;;;22.32;57.47;99904.88;10348988;28;19933;-57
2021/08/04 09:28:03;;;;;;;;;;;;;;;23.22;54.31;99898.84;10331383;28;19940;-55
2021/08/04 09:33:11;;;;;;;;;;;;;;;23.79;52.15;99898.13;10353004;28;20468;-56
2021/08/04 09:38:13;;;;;;;;;;;;;;;24.15;51.03;99888.50;10342774;28;20568;-57
2021/08/04 09:43:23;;;;;;;;;;;;;;;24.05;50.27;99886.28;10350918;28;20664;-58
2021/08/04 09:48:25;;;;;;;;;;;;;;;24.20;49.89;99882.41;10344856;28;20687;-58
2021/08/04 09:53:28;;;;;;;;;;;;;;;23.37;51.60;99881.47;10346617;28;19987;-55
2021/08/04 09:58:29;;;;;;;;;;;;;;;23.19;53.42;99880.28;10346405;28;20296;-53
2021/08/04 10:03:32;;;;;;;;;;;;;;;23.54;51.55;99879.06;10348415;28;20866;-59
2021/08/04 10:08:37;;;;;;;;;;;;;;;23.80;49.31;99872.66;10346487;28;20548;-55
2021/08/04 10:13:38;;;;;;;;;;;;;;;24.74;45.84;99863.69;10346676;28;20514;-56
2021/08/04 10:18:40;;;;;;;;;;;;;;;25.86;44.73;99868.72;10348662;28;20292;-52
2021/08/04 10:23:49;;;;;;;;;;;;;;;26.74;42.36;99862.66;10348066;28;19987;-55
2021/08/04 10:28:52;;;;;;;;;;;;;;;26.24;41.77;99853.03;10334090;28;20256;-57
2021/08/04 10:33:58;;;;;;;;;;;;;;;25.29;44.95;99869.09;10350853;28;20020;-55
2021/08/04 10:39:04;;;;;;;;;;;;;;;24.53;47.57;99863.06;10347579;28;20674;-58
2021/08/04 10:44:06;;;;;;;;;;;;;;;24.67;48.23;99856.44;10352642;28;20008;-55
2021/08/04 10:49:09;;;;;;;;;;;;;;;25.12;45.63;99851.75;10339081;28;21077;-56
2021/08/04 10:54:14;;;;;;;;;;;;;;;26.32;42.90;99849.97;10331446;28;19960;-58
2021/08/04 10:59:23;;;;;;;;;;;;;;;27.32;40.29;99849.91;10343568;28;19955;-57
2021/08/04 11:04:27;;;;;;;;;;;;;;;28.12;38.20;99850.81;10339734;28;19929;-52
2021/08/04 11:09:32;;;;;;;;;;;;;;;27.85;39.28;99845.97;10340109;28;19968;-54
2021/08/04 11:14:39;;;;;;;;;;;;;;;27.43;39.40;99843.59;10339149;28;20512;-57
2021/08/04 11:19:56;;;;;;;;;;;;;;;27.05;39.90;99845.00;10343104;28;19925;-56
2021/08/04 11:24:58;;;;;;;;;;;;;;;26.60;40.40;99846.50;10344830;28;19971;-58
2021/08/04 11:30:00;;;;;;;;;;;;;;;26.54;40.50;99835.72;10339444;28;20037;-53
2021/08/04 11:35:15;;;;;;;;;;;;;;;27.19;37.88;99836.53;10344181;28;19925;-56
2021/08/04 11:40:16;;;;;;;;;;;;;;;28.67;37.04;99823.69;10340350;28;19937;-57
2021/08/04 11:45:18;;;;;;;;;;;;;;;28.54;35.74;99833.09;10346814;28;20052;-58
2021/08/04 11:50:19;;;;;;;;;;;;;;;28.23;36.42;99821.69;10341228;28;20334;-55
2021/08/04 11:55:24;;;;;;;;;;;;;;;27.30;38.64;99816.53;10344750;28;19965;-54
2021/08/04 12:00:28;;;;;;;;;;;;;;;26.92;39.15;99815.25;10338590;28;20016;-57
2021/08/04 12:05:30;;;;;;;;;;;;;;;26.54;39.29;99824.78;10340461;28;19925;-54
2021/08/04 12:10:33;;;;;;;;;;;;;;;26.00;39.86;99808.56;10353684;28;20009;-57
2021/08/04 12:15:34;;;;;;;;;;;;;;;25.56;41.11;99812.38;10340906;28;20715;-59
2021/08/04 12:20:37;;;;;;;;;;;;;;;24.98;42.11;99816.53;10352738;28;20008;-53
2021/08/04 12:25:41;;;;;;;;;;;;;;;24.61;43.67;99813.81;10332732;28;19933;-59
2021/08/04 12:30:44;;;;;;;;;;;;;;;24.33;44.76;99814.28;10349864;28;20052;-53
2021/08/04 12:36:09;;;;;;;;;;;;;;;24.00;47.81;99824.44;10334331;28;20020;-58
2021/08/04 12:41:31;;;;;;;;;;;;;;;23.64;48.47;99836.81;10351033;28;20029;-61
2021/08/04 12:46:33;;;;;;;;;;;;;;;23.10;53.09;99835.44;10344396;28;20031;-57
2021/08/04 12:51:38;;;;;;;;;;;;;;;23.24;53.84;99837.03;10348976;28;19937;-55
2021/08/04 12:56:40;;;;;;;;;;;;;;;22.77;55.21;99844.50;10350460;28;19933;-59
2021/08/04 13:01:42;;;;;;;;;;;;;;;23.65;53.39;99838.44;10343442;28;20169;-54
2021/08/04 13:06:51;;;;;;;;;;;;;;;24.22;51.15;99821.31;10350863;28;19933;-61
2021/08/04 13:12:10;;;;;;;;;;;;;;;23.95;52.17;99842.47;10345933;28;19928;-58
2021/08/04 13:17:22;;;;;;;;;;;;;;;23.18;54.72;99837.91;10346797;28;20011;-59
2021/08/04 13:22:24;;;;;;;;;;;;;;;23.45;54.26;99837.78;10349219;28;20008;-54
2021/08/04 13:27:29;;;;;;;;;;;;;;;22.94;55.11;99843.00;10329567;28;20060;-58
2021/08/04 13:32:30;;;;;;;;;;;;;;;22.60;56.67;99831.41;10344822;28;20050;-55
2021/08/04 13:37:32;;;;;;;;;;;;;;;22.60;56.61;99836.00;10343563;28;20012;-53
2021/08/04 13:42:33;;;;;;;;;;;;;;;23.12;55.68;99828.75;10349555;28;20380;-54
2021/08/04 13:47:35;;;;;;;;;;;;;;;22.66;56.57;99828.91;10349775;28;19937;-53
2021/08/04 13:52:37;;;;;;;;;;;;;;;22.78;56.09;99816.34;10349228;28;19961;-58
2021/08/04 13:57:39;;;;;;;;;;;;;;;22.97;55.63;99813.75;10347949;28;19968;-53
2021/08/04 14:02:41;;;;;;;;;;;;;;;23.31;54.28;99815.28;10352907;28;20195;-55
2021/08/04 14:07:43;;;;;;;;;;;;;;;23.69;53.67;99816.28;10350163;28;19933;-56
2021/08/04 14:12:45;;;;;;;;;;;;;;;24.22;52.43;99815.03;10346732;28;20387;-57
2021/08/04 14:17:47;;;;;;;;;;;;;;;24.68;52.00;99811.84;10347430;28;20509;-60
2021/08/04 14:22:48;;;;;;;;;;;;;;;24.89;51.34;99804.25;10325454;28;20426;-61
2021/08/04 14:27:50;;;;;;;;;;;;;;;25.04;51.09;99801.97;10345897;28;20071;-58
2021/08/04 14:32:51;;;;;;;;;;;;;;;25.10;49.95;99791.22;10347064;28;19976;-57
2021/08/04 14:37:55;;;;;;;;;;;;;;;25.06;49.96;99790.88;10345134;28;20379;-55
2021/08/04 14:42:56;;;;;;;;;;;;;;;25.13;49.68;99785.31;10343657;28;20494;-60
2021/08/04 14:47:57;;;;;;;;;;;;;;;24.73;48.90;99783.13;10344813;28;19926;-56
2021/08/04 14:52:59;;;;;;;;;;;;;;;24.75;47.26;99764.69;10344777;28;19933;-55
2021/08/04 14:58:01;;;;;;;;;;;;;;;24.58;48.52;99768.03;10345596;28;19960;-56
2021/08/04 15:03:02;;;;;;;;;;;;;;;24.03;48.88;99740.78;10345095;28;19980;-58
2021/08/04 15:08:05;;;;;;;;;;;;;;;24.27;49.29;99764.34;10340576;28;19972;-52
2021/08/04 15:13:06;;;;;;;;;;;;;;;23.98;50.91;99774.88;10339253;28;19937;-60
2021/08/04 15:18:08;;;;;;;;;;;;;;;24.34;49.24;99758.84;10340517;28;21631;-53
2021/08/04 15:23:11;;;;;;;;;;;;;;;24.42;48.88;99746.84;10345145;28;20425;-60
2021/08/04 15:28:12;;;;;;;;;;;;;;;24.61;49.36;99759.41;10344124;28;19940;-61
2021/08/04 15:33:13;;;;;;;;;;;;;;;24.64;49.23;99756.22;10338981;28;20488;-60
2021/08/04 15:38:15;;;;;;;;;;;;;;;24.84;48.14;99755.13;10341297;28;20059;-57
2021/08/04 15:43:16;;;;;;;;;;;;;;;24.80;46.19;99746.59;10343280;28;20684;-56
2021/08/04 15:48:18;;;;;;;;;;;;;;;24.50;45.86;99757.38;10340516;28;20366;-58
2021/08/04 15:53:19;;;;;;;;;;;;;;;24.44;45.81;99752.88;10342931;28;20008;-53
2021/08/04 15:58:21;;;;;;;;;;;;;;;24.29;45.50;99745.94;10324678;28;20234;-58
2021/08/04 16:03:22;;;;;;;;;;;;;;;24.15;45.67;99749.84;10335201;28;20468;-54
2021/08/04 16:08:23;;;;;;;;;;;;;;;24.12;46.03;99750.28;10342466;28;19957;-57
2021/08/04 16:13:25;;;;;;;;;;;;;;;24.07;46.03;99747.44;10345222;28;20053;-54
2021/08/04 16:18:29;;;;;;;;;;;;;;;24.04;46.68;99737.00;10338746;28;20028;-58
2021/08/04 16:23:30;;;;;;;;;;;;;;;23.86;49.98;99730.47;10344160;28;20298;-58
2021/08/04 16:28:32;;;;;;;;;;;;;;;23.85;50.14;99723.38;10337235;28;19961;-55
2021/08/04 16:33:34;;;;;;;;;;;;;;;23.93;50.78;99725.81;10341740;28;19979;-56
2021/08/04 16:38:36;;;;;;;;;;;;;;;24.06;50.90;99713.94;10340166;28;20642;-56
2021/08/04 16:43:37;;;;;;;;;;;;;;;23.99;51.46;99719.47;10343567;28;20441;-54
2021/08/04 16:48:39;;;;;;;;;;;;;;;23.68;51.88;99716.81;10320421;28;20046;-55
2021/08/04 16:53:41;;;;;;;;;;;;;;;23.35;51.73;99705.19;10349607;28;19980;-52
2021/08/04 16:58:42;;;;;;;;;;;;;;;23.09;50.85;99703.47;10345549;28;19995;-54
2021/08/04 17:03:43;;;;;;;;;;;;;;;22.92;50.80;99708.56;10348080;28;20012;-55
2021/08/04 17:08:45;;;;;;;;;;;;;;;22.64;51.88;99712.47;10351031;28;20012;-55
2021/08/04 17:13:46;;;;;;;;;;;;;;;22.56;52.46;99702.72;10343513;28;20410;-54
2021/08/04 17:18:49;;;;;;;;;;;;;;;22.24;53.10;99701.75;10344642;28;20057;-53
2021/08/04 17:23:51;;;;;;;;;;;;;;;22.09;53.99;99703.88;10345918;28;20581;-54
2021/08/04 17:28:52;;;;;;;;;;;;;;;22.07;54.49;99701.41;10343653;28;19940;-58
2021/08/04 17:33:53;;;;;;;;;;;;;;;21.93;54.26;99702.44;10346787;28;19968;-56
2021/08/04 17:38:55;;;;;;;;;;;;;;;21.79;54.94;99699.75;10348713;28;19955;-51
2021/08/04 17:43:56;;;;;;;;;;;;;;;21.78;54.39;99692.66;10335554;28;19926;-53
2021/08/04 17:48:58;;;;;;;;;;;;;;;21.81;54.66;99695.00;10317865;28;23982;-52
2021/08/04 17:53:59;;;;;;;;;;;;;;;21.69;53.84;99697.50;10336882;28;19937;-53
2021/08/04 17:59:00;;;;;;;;;;;;;;;21.49;54.37;99715.59;10342897;28;19979;-52
2021/08/04 18:04:02;;;;;;;;;;;;;;;21.22;54.88;99695.81;10344759;28;19937;-55
2021/08/04 18:09:03;;;;;;;;;;;;;;;21.06;55.21;99705.13;10340636;28;20016;-55
2021/08/04 18:14:05;;;;;;;;;;;;;;;21.15;55.42;99698.47;10340301;28;20030;-55
2021/08/04 18:19:06;;;;;;;;;;;;;;;21.19;55.86;99697.88;10344305;28;20015;-54
2021/08/04 18:24:08;;;;;;;;;;;;;;;21.23;55.47;99703.72;10336401;28;20027;-54
2021/08/04 18:29:09;;;;;;;;;;;;;;;21.18;55.18;99709.75;10344745;28;20028;-54
2021/08/04 18:34:11;;;;;;;;;;;;;;;21.11;54.82;99703.50;10348118;28;20020;-55
2021/08/04 18:39:13;;;;;;;;;;;;;;;21.09;54.77;99708.28;10346007;28;19976;-54
2021/08/04 18:44:18;;;;;;;;;;;;;;;21.11;55.23;99708.91;10341521;28;20015;-55
2021/08/04 18:49:19;;;;;;;;;;;;;;;21.12;56.90;99716.00;10345850;28;19932;-54
2021/08/04 18:54:21;;;;;;;;;;;;;;;21.06;56.88;99716.78;10344057;28;20413;-54
2021/08/04 18:59:22;;;;;;;;;;;;;;;20.99;57.02;99721.38;10345321;28;20598;-53
2021/08/04 19:04:23;;;;;;;;;;;;;;;20.93;56.33;99719.50;10335792;28;20028;-54
2021/08/04 19:09:25;;;;;;;;;;;;;;;20.90;55.72;99719.91;10319986;28;19929;-55
2021/08/04 19:14:26;;;;;;;;;;;;;;;20.93;56.26;99723.00;10314736;28;20391;-58
2021/08/04 19:19:27;;;;;;;;;;;;;;;20.91;56.70;99722.41;10324446;28;19951;-55
2021/08/04 19:24:29;;;;;;;;;;;;;;;20.95;56.43;99720.94;10343641;28;20063;-54
2021/08/04 19:29:30;;;;;;;;;;;;;;;20.94;55.47;99729.25;10341577;28;20020;-53
2021/08/04 19:34:31;;;;;;;;;;;;;;;20.83;56.23;99720.69;10344942;28;20048;-53
2021/08/04 19:39:33;;;;;;;;;;;;;;;20.88;55.96;99721.94;10345668;28;20060;-55
2021/08/04 19:44:34;;;;;;;;;;;;;;;20.92;55.50;99720.50;10326516;28;20032;-53
2021/08/04 19:49:35;;;;;;;;;;;;;;;20.87;56.19;99722.97;10338807;28;19929;-55
2021/08/04 19:54:37;;;;;;;;;;;;;;;20.83;57.13;99717.97;10346796;28;19973;-53
2021/08/04 19:59:38;;;;;;;;;;;;;;;20.81;56.73;99722.78;10341098;28;20350;-53
2021/08/04 20:04:40;;;;;;;;;;;;;;;20.76;56.92;99733.38;10349313;28;20033;-54
2021/08/04 20:09:41;;;;;;;;;;;;;;;20.64;59.89;99734.94;10339950;28;20225;-55
2021/08/04 20:14:43;;;;;;;;;;;;;;;20.58;61.37;99741.16;10343297;28;19989;-55
2021/08/04 20:19:44;;;;;;;;;;;;;;;20.51;62.68;99735.75;10342689;28;19940;-55
2021/08/04 20:24:48;;;;;;;;;;;;;;;20.43;63.49;99733.19;10346857;28;20016;-55
2021/08/04 20:29:49;;;;;;;;;;;;;;;20.36;63.71;99745.84;10353248;28;20302;-56
2021/08/04 20:34:50;;;;;;;;;;;;;;;20.23;64.60;99743.91;10352396;28;20015;-56
2021/08/04 20:39:53;;;;;;;;;;;;;;;20.20;64.48;99753.22;10348526;28;19924;-55
2021/08/04 20:44:54;;;;;;;;;;;;;;;20.20;64.35;99752.41;10343486;28;20047;-54
2021/08/04 20:49:56;;;;;;;;;;;;;;;20.18;64.34;99744.50;10344837;28;20020;-54
2021/08/04 20:54:57;;;;;;;;;;;;;;;20.17;64.52;99748.22;10346227;28;20024;-53
2021/08/04 20:59:58;;;;;;;;;;;;;;;20.19;64.23;99748.88;10341584;28;20283;-54
2021/08/04 21:05:02;;;;;;;;;;;;;;;19.92;64.21;99715.44;10359120;28;20020;-56
2021/08/04 21:10:04;;;;;;;;;;;;;;;20.11;64.04;99738.22;10363762;28;19969;-52
2021/08/04 21:15:06;;;;;;;;;;;;;;;20.05;64.27;99736.31;10361474;28;20751;-55
2021/08/04 21:20:10;;;;;;;;;;;;;;;20.06;64.57;99733.41;10369323;28;19926;-56
2021/08/04 21:25:11;;;;;;;;;;;;;;;20.10;64.72;99740.09;10368659;28;19982;-52
2021/08/04 21:30:14;;;;;;;;;;;;;;;20.05;64.57;99739.00;10366823;28;19968;-54
2021/08/04 21:35:15;;;;;;;;;;;;;;;20.05;64.79;99737.13;10372828;28;20494;-53
2021/08/04 21:40:18;;;;;;;;;;;;;;;20.08;65.13;99742.13;10374995;28;19933;-55
2021/08/04 21:45:19;;;;;;;;;;;;;;;20.02;65.47;99747.50;10364360;28;20399;-54
2021/08/04 21:50:22;;;;;;;;;;;;;;;20.02;65.04;99752.91;10363848;28;19929;-54
2021/08/04 21:55:24;;;;;;;;;;;;;;;20.01;64.90;99749.41;10364440;28;20062;-54
2021/08/04 22:00:27;;;;;;;;;;;;;;;19.97;65.23;99745.41;10372692;28;19964;-54
2021/08/04 22:05:30;;;;;;;;;;;;;;;19.87;64.62;99742.22;10360912;28;19925;-54
2021/08/04 22:10:31;;;;;;;;;;;;;;;19.78;64.94;99742.34;10364597;28;19948;-54
2021/08/04 22:15:32;;;;;;;;;;;;;;;19.78;65.21;99747.75;10369055;28;19952;-54
2021/08/04 22:20:35;;;;;;;;;;;;;;;19.78;65.30;99746.94;10369812;28;20020;-55
2021/08/04 22:25:37;;;;;;;;;;;;;;;19.69;65.29;99743.50;10374350;28;19929;-54
2021/08/04 22:30:38;;;;;;;;;;;;;;;19.67;65.66;99740.16;10369980;28;19936;-54
2021/08/04 22:35:40;;;;;;;;;;;;;;;19.65;65.80;99731.44;10369114;28;19925;-54
2021/08/04 22:40:42;;;;;;;;;;;;;;;19.59;65.89;99727.66;10371091;28;20535;-54
2021/08/04 22:45:43;;;;;;;;;;;;;;;19.54;65.97;99734.66;10371475;28;19975;-55
2021/08/04 22:50:49;;;;;;;;;;;;;;;19.49;66.17;99734.41;10367951;28;19969;-54
2021/08/04 22:55:50;;;;;;;;;;;;;;;19.44;66.55;99734.97;10361099;28;19960;-55
2021/08/04 23:00:52;;;;;;;;;;;;;;;19.45;66.38;99733.97;10369403;28;19975;-54
2021/08/04 23:05:53;;;;;;;;;;;;;;;19.51;66.83;99735.06;10364268;28;20287;-55
2021/08/04 23:10:54;;;;;;;;;;;;;;;19.56;66.96;99727.19;10358314;28;19976;-54
2021/08/04 23:15:56;;;;;;;;;;;;;;;19.60;66.80;99741.97;10360190;28;19972;-54
2021/08/04 23:20:57;;;;;;;;;;;;;;;19.61;66.79;99738.25;10357975;28;19933;-54
2021/08/04 23:25:59;;;;;;;;;;;;;;;19.57;67.18;99726.16;10364739;28;19999;-55
2021/08/04 23:31:00;;;;;;;;;;;;;;;19.54;67.31;99730.09;10361643;28;20016;-54
2021/08/04 23:36:01;;;;;;;;;;;;;;;19.51;67.55;99735.06;10367841;28;19975;-54
2021/08/04 23:41:03;;;;;;;;;;;;;;;19.47;68.23;99729.22;10357299;28;19968;-54
2021/08/04 23:46:04;;;;;;;;;;;;;;;19.41;68.37;99738.91;10363092;28;19926;-54
2021/08/04 23:51:06;;;;;;;;;;;;;;;19.41;68.60;99725.44;10356275;28;19996;-55
2021/08/04 23:56:08;;;;;;;;;;;;;;;19.42;68.76;99729.78;10360543;28;19968;-54
